Tiempo atmosférico en la estación meteorológica de A Coruña Aeropuerto, A Coruña (98 m.)



Fecha
DESCASC
Temp. máxima en grados centígrados (hora)
DESCASC
Temp. mínima en grados centígrados (hora)
DESCASC
Temp. media en grados centígrados
DESCASC
Racha de viento máxima en m/sg (hora)
DESCASC
Velocidad máxima media en intervalos de 10 minutos(hora)
DESCASC
Precipitaciones diarias en mm
DESCASC
Precipitaciones de 00:00 a 06:00 en mm
DESCASC
Precipitaciones de 06:00 a 12:00 en mm
DESCASC
Precipitaciones de 12:00 a 18:00 en mm
DESCASC
Precipitaciones de 18:00 a 24:00 en mm
DESCASC
23-05-2018 24.6 (16:10) 9.3 (07:40) 17 6.11 (16:20) 4.17 (14:40) 0 0 0 0 0
22-05-2018 23.6 (19:10) 12.7 (05:30) 18.2 8.33 (16:10) 5.56 (16:10) 0 0 0 0 0
21-05-2018 17.7 (14:10) 8.3 (06:50) 13 9.17 (15:50) 6.11 (17:00) 0 0 0 0 0
20-05-2018 24.7 (17:00) 6.8 (00:00) 15.8 9.17 (18:00) 5.56 (17:20) 0 0 0 0 0
19-05-2018 26.7 (17:00) 11.1 (00:00) 18.9 9.72 (18:30) 5.83 (18:20) 0 0 0 0 0
18-05-2018 21.7 (15:10) 9.9 (00:00) 15.8 12.5 (16:40) 7.78 (16:30) 0 0 0 0 0
17-05-2018 18.7 (13:40) 11.2 (00:00) 15 11.67 (17:30) 7.22 (15:40) 0 0 0 0 0
16-05-2018 19 (16:00) 10.7 (00:00) 14.8 11.67 (20:00) 7.22 (20:30) 0 0 0 0 0
15-05-2018 16.2 (15:00) 11.2 (00:00) 13.7 12.78 (16:30) 7.78 (17:10) 0 0 0 0 0
14-05-2018 16.8 (17:50) 10.9 (00:00) 13.8 10.28 (06:50) 6.39 (17:00) 2.5 2.1 0.4 0 0
13-05-2018 13.7 (18:00) 7.5 (00:00) 10.6 10.83 (15:40) 6.11 (15:40) 5.7 3 1.4 0.2 1.1
12-05-2018 13.8 (15:40) 7.8 (00:00) 10.8 13.89 (14:00) 8.33 (14:00) 5.3 3.3 1.8 0 0.2
11-05-2018 15.6 (14:40) 9.6 (07:30) 12.6 12.78 (10:00) 8.61 (10:00) 0.1 0 0.1 0 0
10-05-2018 17.9 (14:50) 9 (00:00) 13.4 10.83 (18:00) 6.39 (16:30) 0.1 0.1 0 0 0
09-05-2018 15.9 (17:00) 11.5 (00:00) 13.7 9.17 (13:40) 5.56 (13:40) 0.6 0 0 0 0.6
08-05-2018 17.7 (16:10) 11.7 (00:00) 14.7 10.83 (17:40) 6.67 (17:40) 0 0 0 0 0
07-05-2018 22 (14:00) 10.6 (00:00) 16.3 10.28 (15:10) 7.22 (15:20) 0 0 0 0 0
06-05-2018 24.4 (17:20) 8.2 (00:00) 16.3 8.89 (18:10) 5.56 (16:50) 0 0 0 0 0
05-05-2018 21.8 (17:30) 5.2 (00:00) 13.5 11.67 (17:40) 6.67 (17:40) 0 0 0 0 0
04-05-2018 18.2 (15:50) 9.2 (00:00) 13.7 11.39 (15:50) 6.67 (20:50) 0 0 0 0 0
03-05-2018 15.1 (19:00) 8 (00:00) 11.6 12.5 (15:10) 7.5 (16:30) 0 0 0 0 0
02-05-2018 16.1 (16:20) 9.9 (00:00) 13 14.44 (04:10) 9.72 (04:10) 4.3 0.6 0.2 0.5 3
01-05-2018 16.3 (18:00) 2.8 (07:20) 9.5 10.83 (17:30) 6.67 (19:00) 0.8 0 0 0 0.8
30-04-2018 13.4 (16:00) 6.3 (00:00) 9.8 9.17 (14:30) 6.11 (00:10) 1 1 0 0 0
29-04-2018 12.3 (14:00) 7.3 (00:00) 9.8 13.89 (14:10) 8.06 (14:10) 9.9 0 0.1 9.6 0.2
28-04-2018 15.3 (12:40) 5 (00:00) 10.2 9.72 (18:20) 5.56 (18:30) 0.5 0 0 0 0.5
27-04-2018 15.4 (15:30) 8.7 (00:00) 12 10.83 (03:40) 6.39 (13:20) 0 0 0 0 0
26-04-2018 16.2 (18:50) 6.4 (00:00) 11.3 10.28 (16:10) 6.39 (16:30) 0 0 0 0 0
25-04-2018 14.8 (15:50) 10.8 (00:00) 12.8 11.67 (18:00) 7.22 (18:40) 0.6 0 0.6 0 0
24-04-2018 17.2 (13:10) 6.9 (00:00) 12.1 12.5 (16:20) 7.78 (16:10) 0 0 0 0 0

Gráficas

Temp. máximas Temp. mínimas Temp. medias Precipitaciones Rachas de viento máximas Velocidades máximas media en intervalos de 10 minutos

Datos horarios

Fecha y hora oficial Temperatura (ºC) Velocidad del viento (km/h) Dirección del viento Racha (km/h) Dirección de racha Precipitación (mm) Presión (hPa) Tendencia (hPa) Humedad (%)
2018-05-23 23:00:00 18.1 9 Norte 13 Norte 0 1003.4 0.7 76
2018-05-23 22:00:00 19.7 4 Norte 9 Nordeste 0 1003.1 0.9 72
2018-05-23 21:00:00 20.5 6 Nordeste 11 Norte 0 1003 0.6 71
2018-05-23 20:00:00 22.1 6 Norte 13 Noroeste 0 1002.7 0.2 61
2018-05-23 19:00:00 22.9 9 Norte 17 Oeste 0 1002.2 -0.2 56
2018-05-23 18:00:00 23.4 10 Noroeste 22 Noroeste 0 1002.4 -0.4 55
2018-05-23 17:00:00 22.8 12 Norte 22 Norte 0 1002.5 -0.7 56
2018-05-23 16:00:00 24 12 Norte 21 Nordeste 0 1002.4 -1.2 55
2018-05-23 15:00:00 22 13 Norte 21 Norte 0 1002.8 -1.2 60
2018-05-23 14:00:00 23.3 10 Nordeste 15 Nordeste 0 1003.2 -0.7 57
2018-05-23 13:00:00 21.5 7 Nordeste 13 Norte 0 1003.6 -0.4 56
2018-05-23 12:00:00 19.6 8 Norte 15 Norte 0 1004 0 58
2018-05-23 11:00:00 18.3 5 Nordeste 9 Nordeste 0 1003.9 0.3 60
2018-05-23 10:00:00 15.7 3 Nordeste 9 Sur 0 1004 0.8 71
2018-05-23 09:00:00 13 8 Sur 11 Sur 0 1004 0.8 80
2018-05-23 08:00:00 10.1 8 Sur 15 Sudeste 0 1003.6 0.3 91
2018-05-23 07:00:00 9.9 0 Calma 9 Sur 0 1003.2 -0.3 90
2018-05-23 06:00:00 10 8 Sur 9 Sur 0 1003.2 -0.9 91
2018-05-23 05:00:00 10.7 5 Sur 8 Sur 0 1003.3 -1.1 89
2018-05-23 04:00:00 11.9 6 Sur 9 Sur 0 1003.5 -0.7 86
2018-05-23 03:00:00 12.8 7 Sur 9 Sur 0 1004.1 0.1 80
2018-05-23 02:00:00 14 2 Sudoeste 8 Sudoeste 0 1004.4 1 73
2018-05-23 01:00:00 15.4 4 Noroeste 9 Noroeste 0 1004.2 1.5 69
2018-05-23 00:00:00 16.4 6 Noroeste 9 Noroeste 0 1004 1.8 67
2018-05-22 23:00:00 17.4 7 Noroeste 13 Noroeste 0 1003.4 1.5 65
2018-05-22 22:00:00 19.5 7 Noroeste 13 Noroeste 0 1002.7 1 60
2018-05-22 21:00:00 21.3 10 Norte 24 Norte 0 1002.2 0.6 54
2018-05-22 20:00:00 22.5 14 Norte 24 Norte 0 1001.9 0.1 53
2018-05-22 19:00:00 23.1 14 Norte 22 Norte 0 1001.7 -0.5 54
2018-05-22 18:00:00 22.5 12 Norte 22 Noroeste 0 1001.6 -0.8 58
2018-05-22 17:00:00 22.5 14 Norte 30 Norte 0 1001.8 -0.7 54
2018-05-22 16:00:00 21.3 17 Norte 28 Norte 0 1002.2 -0.8 59
2018-05-22 15:00:00 20.2 13 Norte 24 Norte 0 1002.4 -0.8 65
2018-05-22 14:00:00 19.5 12 Nordeste 18 Nordeste 0 1002.5 -0.7 67
2018-05-22 13:00:00 18.1 10 Nordeste 17 Norte 0 1003 0.1 72
2018-05-22 12:00:00 16.9 7 Norte 17 Norte 0 1003.2 0.6 73
2018-05-22 11:00:00 15.2 8 Norte 15 Norte 0 1003.2 0.9 81
2018-05-22 10:00:00 14.4 6 Nordeste 13 Este 0 1002.9 1.2 84
2018-05-22 09:00:00 13.6 6 Este 11 Este 0 1002.6 1.1 90
2018-05-22 08:00:00 13.1 5 Sudeste 15 Este 0 1002.3 1.1 91
2018-05-22 07:00:00 13.1 5 Este 15 Este 0 1001.7 0.5 94
2018-05-22 06:00:00 12.9 0 Calma 8 Nordeste 0 1001.5 0.1 94
2018-05-22 05:00:00 13.4 3 Noroeste 8 Sudoeste 0 1001.2 -0.4 89
2018-05-22 04:00:00 14 4 Sudoeste 9 Sudeste 0 1001.2 -0.5 87
2018-05-22 03:00:00 14.4 5 Sudeste 11 Sudeste 0 1001.4 -0.3 86
2018-05-22 02:00:00 14.2 6 Sur 9 Sur 0 1001.6 0 86
2018-05-22 01:00:00 14.5 0 Calma 11 Oeste 0 1001.7 0.6 85
2018-05-22 00:00:00 14.4 7 Noroeste 13 Noroeste 0 1001.7 0.8 85
2018-05-21 23:00:00 14.6 8 Noroeste 13 Noroeste 0 1001.6 0.9 84
2018-05-21 22:00:00 14.8 10 Noroeste 17 Noroeste 0 1001.1 0.9 82
2018-05-21 21:00:00 15.2 10 Noroeste 18 Noroeste 0 1000.9 0.9 80
2018-05-21 20:00:00 15.6 8 Norte 21 Oeste 0 1000.7 0.8 79
2018-05-21 19:00:00 15.6 12 Noroeste 30 Noroeste 0 1000.2 0.3 80
2018-05-21 18:00:00 16 18 Noroeste 32 Norte 0 1000 0.4 74
2018-05-21 17:00:00 17 22 Noroeste 32 Norte 0 999.9 0.3 68
2018-05-21 16:00:00 17 20 Norte 33 Noroeste 0 999.9 -0.1 69
2018-05-21 15:00:00 16.7 18 Norte 32 Nordeste 0 999.6 -0.3 74
2018-05-21 14:00:00 17.4 12 Nordeste 21 Nordeste 0 999.6 -0.2 68
2018-05-21 13:00:00 16.1 13 Nordeste 21 Nordeste 0 1000 0.3 77
2018-05-21 12:00:00 15.2 12 Norte 21 Norte 0 999.9 0.7 80
2018-05-21 11:00:00 15.2 11 Norte 17 Nordeste 0 999.8 1 73
2018-05-21 10:00:00 14.4 6 Este 26 Sudeste 0 999.7 1.3 77
2018-05-21 09:00:00 11 5 Sudeste 13 Sudeste 0 999.2 0.9 87
2018-05-21 08:00:00 8.9 9 Sur 24 Sudeste 0 998.8 0.4 93
2018-05-21 07:00:00 8.4 11 Sur 24 Sur 0 998.4 -0.4 94
2018-05-21 06:00:00 8.7 9 Sur 13 Sur 0 998.3 -1 92
2018-05-21 05:00:00 9.4 8 Sur 13 Sur 0 998.4 -1.2 89
2018-05-21 04:00:00 10.5 9 Sur 11 Sur 0 998.8 -1 86
2018-05-21 03:00:00 11.5 4 Sur 9 Sur 0 999.3 -0.8 76
2018-05-21 02:00:00 13 0 Calma 2 Noroeste 0 999.6 -0.2 68
2018-05-21 01:00:00 14.2 0 Calma 17 Este 0 999.8 0.3 65
2018-05-21 00:00:00 15.7 2 Norte 11 Nordeste 0 1000.1 0.8 59
2018-05-20 23:00:00 17 7 Nordeste 21 Este 0 999.8 0.7 53
2018-05-20 22:00:00 18.6 14 Este 28 Este 0 999.5 0.3 45
2018-05-20 21:00:00 21 18 Este 30 Este 0 999.3 -0.1 38
2018-05-20 20:00:00 22.7 12 Norte 22 Norte 0 999.1 -0.6 40
2018-05-20 19:00:00 23.1 11 Norte 30 Noroeste 0 999.2 -1.2 39
2018-05-20 18:00:00 23.4 18 Norte 33 Norte 0 999.4 -1.8 37
2018-05-20 17:00:00 24.5 14 Norte 28 Norte 0 999.7 -2.2 41
2018-05-20 16:00:00 23.6 15 Norte 26 Noroeste 0 1000.4 -2.3 43
2018-05-20 15:00:00 22.7 12 Norte 21 Oeste 0 1001.2 -1.9 47
2018-05-20 14:00:00 21.8 10 Norte 18 Nordeste 0 1001.9 -1.8 48
2018-05-20 13:00:00 19.6 7 Norte 17 Nordeste 0 1002.7 -1.4 53
2018-05-20 12:00:00 17.6 11 Norte 17 Norte 0 1003.1 -1.2 54
2018-05-20 11:00:00 15.9 5 Norte 9 Norte 0 1003.7 -0.5 50
2018-05-20 10:00:00 13.8 0 Calma 5 Este 0 1004.1 0 66
2018-05-20 09:00:00 10.2 2 Sur 11 Sur 0 1004.3 0 79
2018-05-20 08:00:00 7.4 10 Sur 13 Sur 0 1004.2 0 90
2018-05-20 07:00:00 7.2 9 Sur 15 Sudeste 0 1004.1 -0.8 91
2018-05-20 06:00:00 7.9 8 Sur 11 Sur 0 1004.3 -1.1 91
2018-05-20 05:00:00 8.8 6 Sur 11 Sur 0 1004.2 -1.8 86
2018-05-20 04:00:00 9.9 5 Sur -- -- 0 1004.9 -1.3 77
2018-05-20 03:00:00 11.1 6 Sur 8 Sur 0 1005.4 -0.7 73
2018-05-20 02:00:00 12.5 5 Noroeste 8 Noroeste 0 1006 0.5 64
2018-05-20 01:00:00 14.3 3 Noroeste 8 Norte 0 1006.2 1.3 58
2018-05-20 00:00:00 15.7 3 Noroeste 9 Norte 0 1006.1 1.4 55
2018-05-19 23:00:00 17.3 9 Norte 15 Norte 0 1005.5 1 52
2018-05-19 22:00:00 19.3 10 Norte 17 Norte 0 1004.9 0.3 48
2018-05-19 21:00:00 21.6 10 Norte 17 Norte 0 1004.7 0.2 46
2018-05-19 20:00:00 23.5 11 Norte 28 Nordeste 0 1004.5 0 43
2018-05-19 19:00:00 24.5 13 Norte 35 Norte 0 1004.6 -0.4 43
2018-05-19 18:00:00 25.4 18 Norte 32 Nordeste 0 1004.5 -0.9 43
2018-05-19 17:00:00 26.5 14 Norte 28 Norte 0 1004.5 -1.4 40
2018-05-19 16:00:00 25.3 13 Norte 24 Norte 0 1005 -1.1 43
2018-05-19 15:00:00 24.9 12 Norte 21 Norte 0 1005.4 -0.6 45
2018-05-19 14:00:00 23.7 11 Norte 18 Norte 0 1005.9 -0.3 50
2018-05-19 13:00:00 22.6 10 Norte 15 Norte 0 1006.1 -0.3 56
2018-05-19 12:00:00 21.5 7 Norte 17 Este 0 1006 0 61
2018-05-19 11:00:00 20.3 11 Este 24 Este 0 1006.2 0.7 64
2018-05-19 10:00:00 17.8 12 Sur 17 Sur 0 1006.4 1.1 71
2018-05-19 09:00:00 14.6 8 Sur 13 Sur 0 1006 1.1 83
2018-05-19 08:00:00 12.4 8 Sur 13 Sur 0 1005.5 0.7 90
2018-05-19 07:00:00 11.6 0 Calma 5 Este 0 1005.3 0.3 94
2018-05-19 06:00:00 11.6 3 Nordeste 11 Sur 0 1004.9 -0.5 91
2018-05-19 05:00:00 12.1 11 Sur 13 Sur 0 1004.8 -1 91
2018-05-19 04:00:00 12.6 0 Calma 8 Noroeste 0 1005 -0.8 90
2018-05-19 03:00:00 12.9 5 Noroeste 9 Sur 0 1005.4 -0.6 88
2018-05-19 02:00:00 13.3 8 Sur 11 Norte 0 1005.8 0.2 87
2018-05-19 01:00:00 14.4 5 Norte 8 Norte 0 1005.8 0.9 83
2018-05-19 00:00:00 15.2 5 Norte 13 Norte 0 1006 1.7 79
2018-05-18 23:00:00 15.9 7 Noroeste 13 Nordeste 0 1005.6 1.5 77
2018-05-18 22:00:00 17.6 8 Norte 18 Norte 0 1004.9 0.8 68
2018-05-18 21:00:00 19.6 10 Nordeste 22 Nordeste 0 1004.3 -0.1 62
2018-05-18 20:00:00 20.1 12 Norte 28 Norte 0 1004.1 -0.4 63
2018-05-18 19:00:00 20.4 20 Norte 35 Norte 0 1004.1 -0.4 62
2018-05-18 18:00:00 18.7 18 Norte 42 Norte 0 1004.4 -0.3 71
2018-05-18 17:00:00 17.7 26 Norte 45 Norte 0 1004.5 -0.6 74
2018-05-18 16:00:00 19.6 17 Norte 37 Norte 0 1004.5 -1.2 66
2018-05-18 15:00:00 21.4 22 Nordeste 41 Nordeste 0 1004.7 -1.4 58
2018-05-18 14:00:00 20.5 17 Norte 30 Norte 0 1005.1 -1.5 62
2018-05-18 13:00:00 19.6 14 Norte 30 Norte 0 1005.7 -1 62
2018-05-18 12:00:00 18.5 10 Norte 21 Norte 0 1006.1 -0.5 67
2018-05-18 11:00:00 16.6 8 Norte 13 Noroeste 0 1006.6 0.1 71
2018-05-18 10:00:00 15.6 5 Este 9 Este 0 1006.7 0.5 75
2018-05-18 09:00:00 11.9 3 Sudoeste 9 Sudoeste 0 1006.6 0.6 92
2018-05-18 08:00:00 10.2 5 Sur 9 Sudeste 0 1006.5 0.5 92
2018-05-18 07:00:00 12.1 3 Norte 8 Nordeste 0 1006.2 0.2 88
2018-05-18 06:00:00 12.6 2 Norte 15 Norte 0 1006 -0.1 87
2018-05-18 05:00:00 12.7 8 Norte 18 Norte 0 1006 -0.3 86
2018-05-18 04:00:00 12.7 9 Norte 21 Norte 0 1006 -0.3 85
2018-05-18 03:00:00 12.6 9 Norte 18 Norte 0 1006.1 -0.1 86
2018-05-18 02:00:00 12.6 10 Norte 17 Norte 0 1006.3 0.5 85
2018-05-18 01:00:00 12.7 8 Norte 13 Norte 0 1006.3 1.3 84
2018-05-18 00:00:00 13.5 9 Norte 24 Norte 0 1006.2 1.4 81
2018-05-17 23:00:00 14.5 11 Norte 24 Norte 0 1005.8 1.3 78
2018-05-17 22:00:00 15.5 14 Norte 22 Norte 0 1005 0.5 74
2018-05-17 21:00:00 16.1 12 Noroeste 28 Norte 0 1004.8 0.5 70
2018-05-17 20:00:00 17.8 14 Norte 32 Norte 0 1004.5 0.2 65
2018-05-17 19:00:00 16.9 21 Norte 37 Norte 0 1004.5 -0.3 71
2018-05-17 18:00:00 16.4 23 Norte 42 Norte 0 1004.3 -0.7 74
2018-05-17 17:00:00 17.8 22 Norte 41 Norte 0 1004.3 -0.9 69
2018-05-17 16:00:00 16.8 24 Norte 41 Noroeste 0 1004.8 -0.6 71
2018-05-17 15:00:00 17.2 25 Norte 41 Norte 0 1005 -0.6 69
2018-05-17 14:00:00 17.9 23 Norte 39 Norte 0 1005.2 -0.6 66
2018-05-17 13:00:00 17.9 18 Norte 32 Norte 0 1005.4 -0.4 66
2018-05-17 12:00:00 16.9 16 Norte 26 Norte 0 1005.6 -0.1 66
2018-05-17 11:00:00 16 10 Norte 21 Nordeste 0 1005.8 0.2 69
2018-05-17 10:00:00 14.2 10 Nordeste 21 Nordeste 0 1005.8 0.4 75
2018-05-17 09:00:00 12.2 7 Norte 13 Norte 0 1005.7 0.2 82
2018-05-17 08:00:00 11.4 8 Norte 17 Norte 0 1005.6 -0.1 85
2018-05-17 07:00:00 11.3 9 Norte 15 Norte 0 1005.4 -0.5 86
2018-05-17 06:00:00 11.7 8 Norte 21 Norte 0 1005.5 -0.9 84
2018-05-17 05:00:00 11.8 10 Norte 22 Norte 0 1005.7 -0.9 84
2018-05-17 04:00:00 11.8 12 Norte 18 Norte 0 1005.9 -1.2 84
2018-05-17 03:00:00 12 9 Norte 15 Norte 0 1006.4 -0.8 83
2018-05-17 02:00:00 12.1 9 Norte 17 Nordeste 0 1006.6 -0.3 81
2018-05-17 01:00:00 12.2 9 Norte 21 Nordeste 0 1007.1 0.7 79
2018-05-17 00:00:00 12.5 9 Norte 18 Nordeste 0 1007.2 1.1 79
2018-05-16 23:00:00 12.8 10 Norte 24 Norte 0 1006.9 1 78
2018-05-16 22:00:00 13.6 19 Norte 37 Nordeste 0 1006.4 0.5 74
2018-05-16 21:00:00 15.2 21 Nordeste 41 Nordeste 0 1006.1 0 68
2018-05-16 20:00:00 16.7 23 Nordeste 42 Nordeste 0 1005.9 -0.6 63
2018-05-16 19:00:00 16.8 17 Norte 39 Norte 0 1005.9 -1.1 69
2018-05-16 18:00:00 16.9 23 Norte 41 Noroeste 0 1006.1 -1.4 67
2018-05-16 17:00:00 17.4 25 Norte 39 Norte 0 1006.5 -1.6 64
2018-05-16 16:00:00 18.6 17 Norte 35 Nordeste 0 1007 -1.7 58
2018-05-16 15:00:00 18.1 21 Nordeste 35 Nordeste 0 1007.5 -1.6 62
2018-05-16 14:00:00 17.3 18 Nordeste 35 Nordeste 0 1008.1 -1.1 64
2018-05-16 13:00:00 16.8 19 Nordeste 35 Este 0 1008.7 -0.9 65
2018-05-16 12:00:00 15.8 20 Nordeste 32 Norte 0 1009.1 -0.4 70
2018-05-16 11:00:00 15.1 13 Nordeste 28 Norte 0 1009.2 -0.2 74
2018-05-16 10:00:00 13.8 13 Nordeste 30 Nordeste 0 1009.6 0.4 78
2018-05-16 09:00:00 13.2 11 Norte 18 Norte 0 1009.5 0.1 80
2018-05-16 08:00:00 12.1 8 Norte 17 Nordeste 0 1009.4 -0.4 84
2018-05-16 07:00:00 11.3 9 Norte 15 Norte 0 1009.2 -1.2 87
2018-05-16 06:00:00 10.8 5 Noroeste 13 Nordeste 0 1009.4 -1.4 85
2018-05-16 05:00:00 12.2 9 Este 32 Este 0 1009.8 -1.4 78
2018-05-16 04:00:00 12.7 14 Nordeste 30 Nordeste 0 1010.4 -1.1 78
2018-05-16 03:00:00 12.8 10 Nordeste 21 Norte 0 1010.8 -0.9 78
2018-05-16 02:00:00 12.6 12 Norte 26 Norte 0 1011.2 -0.3 79
2018-05-16 01:00:00 12.7 12 Norte 24 Norte 0 1011.5 0.5 80
2018-05-16 00:00:00 13.2 13 Nordeste 24 Norte 0 1011.7 0.7 78
2018-05-15 23:00:00 13.5 9 Norte 24 Nordeste 0 1011.5 0.7 79
2018-05-15 22:00:00 13.9 13 Nordeste 26 Nordeste 0 1011 -0.1 77
2018-05-15 21:00:00 14.1 14 Nordeste 30 Este 0 1011 -0.1 79
2018-05-15 20:00:00 14.2 16 Norte 33 Norte 0 1010.8 -0.3 79
2018-05-15 19:00:00 14.4 19 Norte 41 Norte 0 1011.1 -0.5 82
2018-05-15 18:00:00 15.2 24 Norte 46 Norte 0 1011.1 -0.7 78
2018-05-15 17:00:00 15.5 26 Norte 46 Norte 0 1011.1 -1.3 77
2018-05-15 16:00:00 15.8 24 Norte 41 Norte 0 1011.6 -1 74
2018-05-15 15:00:00 16 21 Norte 35 Norte 0 1011.8 -1 77
2018-05-15 14:00:00 15.2 22 Norte 35 Norte 0 1012.4 -0.5 81
2018-05-15 13:00:00 14.8 14 Norte 24 Norte 0 1012.6 -0.4 85
2018-05-15 12:00:00 14.5 14 Norte 22 Norte 0 1012.8 -0.3 83
2018-05-15 11:00:00 13.6 9 Norte 17 Norte 0 1012.9 0.1 86
2018-05-15 10:00:00 12.4 6 Nordeste 15 Norte 0 1013 0.5 90
2018-05-15 09:00:00 12.4 6 Norte 9 Norte 0 1013.1 0.5 85
2018-05-15 08:00:00 11.8 4 Norte 8 Norte 0 1012.8 0.2 88
2018-05-15 07:00:00 11.3 3 Sur 9 Sur 0 1012.5 -0.3 89
2018-05-15 06:00:00 11.8 2 Norte 5 Norte 0 1012.6 -0.5 87
2018-05-15 05:00:00 11.7 0 Calma 9 Este 0 1012.6 -0.9 86
2018-05-15 04:00:00 12 3 Norte 8 Norte 0 1012.8 -0.9 83
2018-05-15 03:00:00 12 4 Nordeste 13 Norte 0 1013.1 -0.8 83
2018-05-15 02:00:00 12.5 8 Norte 17 Norte 0 1013.5 -0.3 81
2018-05-15 01:00:00 12.5 9 Norte 17 Norte 0 1013.7 0.4 81
2018-05-15 00:00:00 12.5 11 Norte 17 Norte 0 1013.9 0.9 83
2018-05-14 23:00:00 12.6 13 Norte 30 Norte 0 1013.8 1 83
2018-05-14 22:00:00 12.9 18 Norte 32 Norte 0 1013.3 0.5 83
2018-05-14 21:00:00 13.2 12 Norte 30 Noroeste 0 1013 0.2 83
2018-05-14 20:00:00 14.7 21 Norte 33 Noroeste 0 1012.8 0.1 71
2018-05-14 19:00:00 15.4 21 Norte 32 Norte 0 1012.8 0 72
2018-05-14 18:00:00 16 21 Norte 35 Norte 0 1012.8 0.1 71
2018-05-14 17:00:00 15.9 23 Norte 35 Norte 0 1012.7 -0.1 74
2018-05-14 16:00:00 16.1 14 Norte 28 Noroeste 0 1012.8 0.1 75
2018-05-14 15:00:00 15.7 14 Norte 24 Norte 0 1012.7 0.4 82
2018-05-14 14:00:00 14 16 Norte 30 Norte 0 1012.8 0.9 93
2018-05-14 13:00:00 12.9 17 Norte 28 Norte 0 1012.7 1.1 98
2018-05-14 12:00:00 12.6 17 Norte 30 Norte 0 1012.3 0.9 99
2018-05-14 11:00:00 12.6 17 Norte 32 Norte 0.1 1011.9 0.7 99
2018-05-14 10:00:00 12.5 19 Norte 33 Noroeste 0.1 1011.6 0.9 99
2018-05-14 09:00:00 12.6 17 Norte 37 Norte 0.2 1011.4 0.5 99
2018-05-14 08:00:00 12.4 21 Norte 33 Norte 0 1011.2 0.2 99
2018-05-14 07:00:00 12.4 19 Noroeste 37 Norte 0 1010.7 -0.4 99
2018-05-14 06:00:00 12.4 22 Norte 33 Noroeste 0.2 1010.9 -0.5 98
2018-05-14 05:00:00 12.5 18 Noroeste 35 Noroeste 0 1011 -0.6 98
2018-05-14 04:00:00 12.5 18 Noroeste 35 Noroeste 0.1 1011.1 -0.5 98
2018-05-14 03:00:00 12.4 17 Noroeste 32 Noroeste 0.5 1011.4 -0.6 97
2018-05-14 02:00:00 11.9 10 Noroeste 22 Oeste 0.8 1011.6 -0.4 95
2018-05-14 01:00:00 11.4 14 Sudoeste 26 Oeste 0.5 1011.6 -0.4 94
2018-05-11 20:00:00 13.3 11 Noroeste 22 Noroeste 0 1006 1.2 76
2018-05-11 19:00:00 12.9 6 Oeste 30 Noroeste 0 1005.8 0.7 80
2018-05-11 18:00:00 12.5 19 Noroeste 42 Oeste 0 1005.6 1 81
2018-05-11 17:00:00 15 20 Sur 30 Sur 0 1004.8 0.3 73
2018-05-11 16:00:00 15.1 23 Sudoeste 39 Sudoeste 0 1005.1 0.8 72
2018-05-11 15:00:00 15.1 23 Sudoeste 41 Sudoeste 0 1004.6 0.5 69
2018-05-11 14:00:00 15.3 21 Sudoeste 39 Sudoeste 0 1004.5 0.9 70
2018-05-11 13:00:00 13.6 22 Sudoeste 37 Sudoeste 0 1004.3 0.9 77
2018-05-11 12:00:00 12.4 23 Sudoeste 45 Sudoeste 0 1004.1 0.4 80
2018-05-11 11:00:00 12.2 14 Sur 33 Sudoeste 0.1 1003.6 0.9 75
2018-05-11 10:00:00 11.9 31 Sudoeste 46 Sudoeste 0 1003.4 -0.1 73
2018-05-11 09:00:00 11.6 14 Sudoeste 39 Sudoeste 0 1003.7 0.3 74
2018-05-11 08:00:00 10.2 11 Sudeste 30 Sudeste 0 1002.7 0.1 85
2018-05-11 07:00:00 10.6 8 Sudeste 18 Sudoeste 0 1003.5 1.3 81
2018-05-11 06:00:00 10.5 10 Oeste 28 Oeste 0 1003.4 1.5 83
2018-05-11 05:00:00 10.1 5 Noroeste 13 Sur 0 1002.6 0.9 88
2018-05-11 04:00:00 11.8 8 Sur 21 Sudoeste 0 1002.2 -0.3 80
2018-05-11 03:00:00 12.1 12 Sudoeste 21 Sudoeste 0 1001.9 -1.1 79
2018-05-11 02:00:00 10.9 13 Sur 30 Sudeste 0 1001.7 -1.8 86
2018-05-11 01:00:00 11.2 12 Sur 15 Sur 0 1002.5 -1 85
2018-05-11 00:00:00 12.3 8 Sur 17 Sudeste 0 1003 -0.2 80
2018-05-10 23:00:00 13 11 Sur 21 Sudeste 0 1003.5 0.2 78
2018-05-10 22:00:00 14.4 6 Oeste 11 Oeste 0 1003.5 -0.8 71
2018-05-10 21:00:00 17.1 6 Noroeste 15 Noroeste 0 1003.2 -1.7 58
2018-05-10 20:00:00 17 11 Norte 24 Noroeste 0 1003.3 -2.3 58
2018-05-10 19:00:00 16.7 16 Norte 32 Norte 0 1004.3 -2.3 59
2018-05-10 18:00:00 16.1 22 Norte 39 Norte 0 1004.9 -2.7 60
2018-05-10 17:00:00 16.1 21 Norte 37 Noroeste 0 1005.6 -2.6 58
2018-05-10 16:00:00 16.3 23 Norte 35 Norte 0 1006.6 -2.4 56
2018-05-10 15:00:00 17.2 14 Norte 28 Nordeste 0 1007.6 -2 53
2018-05-10 14:00:00 16.6 8 Nordeste 30 Nordeste 0 1008.2 -1.7 57
2018-05-10 13:00:00 15.9 14 Nordeste 30 Nordeste 0 1009 -0.6 57
2018-05-10 12:00:00 14.4 14 Nordeste 26 Nordeste 0 1009.6 0 64
2018-05-10 11:00:00 13.3 17 Nordeste 32 Nordeste 0 1009.9 1.2 66
2018-05-10 10:00:00 12.4 13 Nordeste 24 Nordeste 0 1009.6 1.5 75
2018-05-10 09:00:00 10.6 8 Norte 13 Norte 0 1009.6 1.7 88
2018-05-10 08:00:00 9.2 5 Noroeste 9 Noroeste 0 1008.7 0.7 90
2018-05-10 07:00:00 9.6 0 Calma 9 Norte 0 1008.1 0.1 87
2018-05-10 06:00:00 10.6 6 Norte 15 Nordeste 0 1007.9 0 85
2018-05-10 05:00:00 10.9 6 Norte 21 Nordeste 0 1008 0.1 84
2018-05-10 04:00:00 11.6 10 Norte 26 Norte 0 1008 0.2 80
2018-05-10 03:00:00 11.7 10 Norte 21 Norte 0 1007.9 0.3 87
2018-05-10 02:00:00 12.2 11 Norte 24 Norte 0 1007.9 0.7 86
2018-05-10 01:00:00 12 13 Norte 32 Norte 0.1 1007.8 1.4 90
2018-05-10 00:00:00 11.7 9 Noroeste 24 Noroeste 0.6 1007.6 1.8 95
2018-05-09 23:00:00 12.5 11 Noroeste 18 Norte 0 1007.2 1.5 80
2018-05-09 22:00:00 13 8 Noroeste 18 Oeste 0 1006.4 0.9 75
2018-05-09 21:00:00 13.3 9 Noroeste 22 Noroeste 0 1005.8 0.5 72
2018-05-09 20:00:00 14.8 12 Noroeste 24 Noroeste 0 1005.7 0.7 66
2018-05-09 19:00:00 14.2 14 Noroeste 30 Oeste 0 1005.5 0.6 62
2018-05-09 18:00:00 13.8 18 Noroeste 28 Noroeste 0 1005.3 0.4 71
2018-05-09 17:00:00 15.8 16 Noroeste 24 Oeste 0 1005 0.2 64
2018-05-09 16:00:00 14.4 14 Norte 26 Norte 0 1004.9 0.3 63
2018-05-09 15:00:00 14.9 16 Noroeste 30 Norte 0 1004.9 0.4 65
2018-05-09 14:00:00 14.9 18 Norte 33 Norte 0 1004.8 0.4 63
2018-05-09 13:00:00 15 15 Norte 28 Noroeste 0 1004.6 0.5 70
2018-05-09 12:00:00 14.6 13 Norte 22 Nordeste 0 1004.5 0.5 73
2018-05-09 11:00:00 13.9 10 Norte 18 Norte 0 1004.4 0.8 78
2018-05-09 10:00:00 13.4 11 Norte 24 Norte 0 1004.1 0.7 81
2018-05-09 09:00:00 12.8 12 Norte 18 Norte 0 1004 0.6 84
2018-05-09 08:00:00 12.6 11 Norte 26 Norte 0 1003.6 -0.3 86
2018-05-09 07:00:00 12.6 11 Norte 21 Norte 0 1003.4 -0.7 88
2018-05-09 06:00:00 12.8 10 Norte 18 Norte 0 1003.4 -1.1 91
2018-05-09 05:00:00 12.8 11 Norte 21 Norte 0 1003.9 -1.4 93
2018-05-09 04:00:00 12.8 11 Norte 24 Nordeste 0 1004.1 -1 93
2018-05-09 03:00:00 13.1 13 Norte 24 Nordeste 0 1004.5 -0.8 92
2018-05-09 02:00:00 13.3 10 Norte 21 Norte 0 1005.3 -0.4 94
2018-05-09 01:00:00 13.2 9 Norte 17 Norte 0 1005.1 -0.4 94
2018-05-09 00:00:00 13.1 9 Norte 15 Norte 0 1005.3 -0.1 93
2018-05-08 23:00:00 12.9 7 Norte 13 Norte 0 1005.7 0.2 94
2018-05-08 22:00:00 12.9 9 Norte 18 Norte 0 1005.5 0.1 94
2018-05-08 21:00:00 12.6 11 Norte 21 Norte 0 1005.4 -0.2 96
2018-05-08 20:00:00 13.1 10 Norte 30 Norte 0 1005.5 0 94
2018-05-08 19:00:00 14.6 18 Norte 32 Norte 0 1005.4 -0.4 83
2018-05-08 18:00:00 15.5 20 Norte 39 Norte 0 1005.6 -0.6 77
2018-05-08 17:00:00 16.8 16 Norte 33 Norte 0 1005.5 -1.4 72
2018-05-08 16:00:00 17.1 9 Norte 22 Noroeste 0 1005.8 -1.5 70
2018-05-08 15:00:00 16.6 9 Norte 17 Norte 0 1006.2 -1.2 68
2018-05-08 14:00:00 14.8 8 Norte 17 Noroeste 0 1006.9 0.3 73
2018-05-08 13:00:00 13.1 8 Norte 26 Norte 0 1007.3 1.4 76
2018-05-08 12:00:00 12 18 Norte 33 Norte 0 1007.4 1.6 80
2018-05-08 11:00:00 12.5 11 Norte 18 Norte 0 1006.6 0.8 86
2018-05-08 10:00:00 12.6 8 Norte 15 Norte 0 1005.9 0.3 86
2018-05-08 09:00:00 11.9 7 Norte 18 Norte 0 1005.8 0.5 89
2018-05-08 08:00:00 11.8 9 Norte 22 Norte 0 1005.8 0.6 89
2018-05-08 07:00:00 11.9 14 Norte 24 Norte 0 1005.6 0.3 89
2018-05-08 06:00:00 12.1 12 Norte 18 Norte 0 1005.3 -0.4 95
2018-05-08 05:00:00 12.3 8 Norte 17 Norte 0 1005.2 -0.8 95
2018-05-08 04:00:00 12.5 10 Norte 18 Norte 0 1005.3 -0.9 95
2018-05-08 03:00:00 12.6 12 Norte 24 Norte 0 1005.7 -0.2 95
2018-05-08 02:00:00 12.9 14 Norte 22 Norte 0 1006 0.7 95
2018-05-08 01:00:00 13.1 15 Norte 26 Norte 0 1006.2 1.6 95
2018-05-08 00:00:00 13.3 10 Noroeste 18 Noroeste 0 1005.9 1.8 95
2018-05-07 23:00:00 13.4 9 Noroeste 24 Norte 0 1005.3 1.7 93
2018-05-07 22:00:00 13.6 14 Noroeste 24 Noroeste 0 1004.6 1 93
2018-05-07 21:00:00 14 16 Noroeste 26 Norte 0 1004.1 0.4 91
2018-05-07 20:00:00 14.9 14 Noroeste 28 Noroeste 0 1003.6 -0.2 87
2018-05-07 19:00:00 14.5 19 Noroeste 32 Noroeste 0 1003.6 -0.4 90
2018-05-07 18:00:00 15.1 19 Noroeste 33 Norte 0 1003.7 -0.5 87
2018-05-07 17:00:00 15.8 23 Noroeste 35 Oeste 0 1003.8 -0.4 83
2018-05-07 16:00:00 18.2 18 Noroeste 37 Norte 0 1004 -0.6 75
2018-05-07 15:00:00 18.1 23 Noroeste 33 Noroeste 0 1004.2 -0.6 74
2018-05-07 14:00:00 21.7 16 Norte 26 Noroeste 0 1004.2 -0.6 62
2018-05-07 13:00:00 20.3 9 Norte 15 Norte 0 1004.6 0 68
2018-05-07 12:00:00 17.6 12 Norte 18 Norte 0 1004.8 0.3 74
2018-05-07 11:00:00 16.9 10 Nordeste 15 Nordeste 0 1004.8 0.6 78
2018-05-07 10:00:00 14.5 6 Norte 11 Norte 0 1004.6 0.8 85
2018-05-07 09:00:00 12.5 5 Sur 11 Sur 0 1004.5 0.8 90
2018-05-07 08:00:00 10.8 7 Sur 11 Sur 0 1004.2 0.4 95
2018-05-07 07:00:00 11 5 Sur 11 Sudoeste 0 1003.8 0 95
2018-05-07 06:00:00 11.1 8 Sur 11 Sur 0 1003.7 -0.4 94
2018-05-07 05:00:00 12.1 7 Sur 9 Sur 0 1003.8 -0.4 94
2018-05-07 04:00:00 12.6 5 Sur 8 Sur 0 1003.8 -0.6 91
2018-05-07 03:00:00 12.8 8 Sur 9 Sur 0 1004.1 -0.2 87
2018-05-07 02:00:00 13.5 7 Sur 11 Sur 0 1004.2 0.4 87
2018-05-07 01:00:00 14.5 0 Calma 5 Nordeste 0 1004.4 1.1 84
2018-05-07 00:00:00 15.2 0 Calma 8 Norte 0 1004.3 1.4 80
2018-05-06 23:00:00 16.3 0 Calma 8 Nordeste 0 1003.8 1.3 76
2018-05-06 22:00:00 17.9 5 Nordeste 9 Este 0 1003.3 0.8 69
2018-05-06 21:00:00 21.1 5 Norte 15 Norte 0 1002.9 0.4 60
2018-05-06 20:00:00 22.7 10 Noroeste 21 Norte 0 1002.5 -0.1 54
2018-05-06 19:00:00 23.6 12 Norte 32 Norte 0 1002.5 -0.5 48
2018-05-06 18:00:00 24.2 18 Noroeste 26 Noroeste 0 1002.5 -0.4 41
2018-05-06 17:00:00 24 17 Norte 28 Norte 0 1002.6 -0.8 44
2018-05-06 16:00:00 23.9 13 Norte 22 Nordeste 0 1003 -0.8 52
2018-05-06 15:00:00 23.7 12 Nordeste 21 Nordeste 0 1002.9 -1.3 55
2018-05-06 14:00:00 21.9 13 Norte 21 Norte 0 1003.4 -0.9 57
2018-05-06 13:00:00 22.5 12 Norte 17 Norte 0 1003.8 -0.7 56
2018-05-06 12:00:00 22.1 4 Este 18 Sur 0 1004.2 -0.1 56
2018-05-06 11:00:00 18.5 8 Sur 13 Sur 0 1004.3 0 65
2018-05-06 10:00:00 14.1 5 Sur 11 Sudeste 0 1004.5 0.5 77
2018-05-06 09:00:00 10.9 3 Sur 13 Sur 0 1004.3 0.1 88
2018-05-06 08:00:00 8.3 11 Sur 15 Sur 0 1004.3 0 94
2018-05-06 07:00:00 8.4 6 Sur 13 Sur 0 1004 -0.5 93
2018-05-06 06:00:00 8.9 8 Sur 13 Sur 0 1004.2 -0.6 93
2018-05-06 05:00:00 8.9 7 Sur 11 Sur 0 1004.3 -0.9 91
2018-05-06 04:00:00 9.9 0 Calma 9 Sur 0 1004.5 -1.1 87
2018-05-06 03:00:00 10.9 0 Calma 13 Sudoeste 0 1004.8 -1 84
2018-05-06 02:00:00 12.3 6 Norte 9 Norte 0 1005.2 -0.5 80
2018-05-06 01:00:00 13 8 Norte 17 Norte 0 1005.6 0.3 76
2018-05-06 00:00:00 13.2 12 Noroeste 18 Norte 0 1005.8 0.9 75
2018-05-05 23:00:00 14.2 9 Norte 15 Norte 0 1005.7 1.1 72
2018-05-05 22:00:00 15.9 6 Norte 26 Nordeste 0 1005.3 0.7 61
2018-05-05 21:00:00 17.8 12 Norte 28 Norte 0 1004.9 0.6 56
2018-05-05 20:00:00 19.4 14 Norte 37 Nordeste 0 1004.6 0.3 51
2018-05-05 19:00:00 20.7 17 Nordeste 37 Nordeste 0 1004.6 -0.4 48
2018-05-05 18:00:00 21.5 18 Nordeste 42 Nordeste 0 1004.3 -1.1 47
2018-05-05 17:00:00 20.7 18 Norte 30 Norte 0 1004.3 -1.5 52
2018-05-05 16:00:00 19.9 15 Norte 26 Noroeste 0 1005 -1.4 58
2018-05-05 15:00:00 17.7 15 Norte 30 Norte 0 1005.4 -1.5 66
2018-05-05 14:00:00 18.5 14 Norte 24 Norte 0 1005.8 -1.5 57
2018-05-05 13:00:00 17.4 11 Norte 17 Norte 0 1006.4 -1.1 54
2018-05-05 12:00:00 15.8 8 Norte 15 Nordeste 0 1006.9 -0.8 55
2018-05-05 11:00:00 14 2 Noroeste 9 Noroeste 0 1007.3 -0.1 62
2018-05-05 10:00:00 11.4 3 Sur 9 Sur 0 1007.5 0.4 75
2018-05-05 09:00:00 8 5 Sur 11 Sur 0 1007.7 0.8 89
2018-05-05 08:00:00 5.9 4 Sur 11 Sur 0 1007.4 0.4 92
2018-05-05 07:00:00 5.9 8 Sur 15 Sudeste 0 1007.1 0 93
2018-05-05 06:00:00 6.6 3 Sudoeste 11 Sur 0 1006.9 -0.6 89
2018-05-05 05:00:00 8.2 3 Sur 15 Nordeste 0 1007 -1 83
2018-05-05 04:00:00 10.5 9 Nordeste 18 Norte 0 1007.1 -1 77
2018-05-05 03:00:00 10.7 9 Norte 15 Norte 0 1007.5 -0.7 78
2018-05-05 02:00:00 10.9 5 Norte 18 Norte 0 1008 0 77
2018-05-05 01:00:00 11.4 11 Norte 21 Norte 0 1008.1 0.6 75
2018-05-05 00:00:00 11.6 10 Norte 26 Norte 0 1008.2 1.3 72
2018-05-04 23:00:00 12.1 13 Norte 22 Norte 0 1008 1.2 66
2018-05-04 22:00:00 13 12 Nordeste 33 Norte 0 1007.5 0.7 64
2018-05-04 21:00:00 14.6 22 Norte 37 Nordeste 0 1006.9 0.2 62
2018-05-04 20:00:00 14.8 19 Norte 39 Norte 0 1006.8 -0.1 68
2018-05-04 19:00:00 15.9 22 Norte 37 Norte 0 1006.8 -0.6 62
2018-05-04 18:00:00 16.4 21 Norte 37 Norte 0 1006.7 -1.1 59
2018-05-04 17:00:00 17 20 Norte 37 Norte 0 1006.9 -1.5 55
2018-05-04 16:00:00 17.5 21 Norte 41 Norte 0 1007.4 -1.6 51
2018-05-04 15:00:00 17.2 19 Norte 37 Norte 0 1007.8 -1.6 52
2018-05-04 14:00:00 16.5 15 Norte 37 Nordeste 0 1008.4 -1.3 56
2018-05-04 13:00:00 15.6 16 Norte 33 Nordeste 0 1009 -1.1 60
2018-05-04 12:00:00 14.8 20 Nordeste 32 Nordeste 0 1009.4 -0.5 61
2018-05-04 11:00:00 13.2 14 Norte 26 Norte 0 1009.7 0 72
2018-05-04 10:00:00 11.4 11 Norte 21 Norte 0 1010.1 0.8 78
2018-05-04 09:00:00 10.5 9 Norte 21 Nordeste 0 1009.9 0.5 80
2018-05-04 08:00:00 9.8 10 Nordeste 18 Nordeste 0 1009.7 0 81
2018-05-04 07:00:00 9.4 8 Norte 15 Norte 0 1009.3 -0.8 83
2018-05-04 06:00:00 9.3 7 Norte 13 Nordeste 0 1009.4 -1.1 83
2018-05-04 05:00:00 9.4 6 Norte 15 Norte 0 1009.7 -1.4 82
2018-05-04 04:00:00 9.5 10 Nordeste 17 Norte 0 1010.1 -1.3 81
2018-05-04 03:00:00 9.6 6 Norte 13 Norte 0 1010.5 -1.2 80
2018-05-04 02:00:00 9.6 5 Norte 15 Nordeste 0 1011.1 -0.7 80
2018-05-04 01:00:00 10 5 Norte 15 Nordeste 0 1011.4 0.3 77
2018-05-04 00:00:00 10.2 11 Nordeste 22 Nordeste 0 1011.7 1.3 76
2018-05-03 23:00:00 10.8 12 Nordeste 28 Nordeste 0 1011.8 1.9 72
2018-05-03 22:00:00 11.8 12 Norte 30 Norte 0 1011.1 1.3 72
2018-05-03 21:00:00 13 17 Norte 33 Norte 0 1010.4 0.5 65
2018-05-03 20:00:00 13.6 21 Norte 39 Nordeste 0 1009.9 -0.1 68
2018-05-03 19:00:00 14.9 18 Norte 42 Norte 0 1009.8 -0.3 57
2018-05-03 18:00:00 14.1 23 Norte 45 Norte 0 1009.9 -0.5 64
2018-05-03 17:00:00 13.5 22 Norte 45 Norte 0 1010 -0.8 66
2018-05-03 16:00:00 14.2 27 Norte 45 Norte 0 1010.1 -1 63
2018-05-03 15:00:00 14 24 Norte 41 Norte 0 1010.4 -0.9 65
2018-05-03 14:00:00 13.6 23 Norte 39 Norte 0 1010.8 -0.5 65
2018-05-03 13:00:00 14.2 14 Nordeste 30 Nordeste 0 1011.1 0.2 61
2018-05-03 12:00:00 12.6 16 Norte 28 Nordeste 0 1011.3 0.5 69
2018-05-03 11:00:00 12.4 12 Nordeste 24 Norte 0 1011.3 1.2 75
2018-05-03 10:00:00 11.2 5 Nordeste 13 Nordeste 0 1010.9 1.2 78
2018-05-03 09:00:00 9.4 0 Calma 8 Noroeste 0 1010.8 1.2 88
2018-05-03 08:00:00 8.3 4 Noroeste 8 Nordeste 0 1010.1 0.6 88
2018-05-03 07:00:00 8.5 2 Nordeste 9 Nordeste 0 1009.7 0.1 88
2018-05-03 06:00:00 9.4 5 Nordeste 13 Norte 0 1009.6 -0.2 83
2018-05-03 05:00:00 10.2 6 Norte 15 Norte 0 1009.5 -0.1 80
2018-05-03 04:00:00 10.5 8 Nordeste 15 Nordeste 0 1009.6 0.2 81
2018-05-03 03:00:00 10.8 12 Nordeste 28 Nordeste 0 1009.8 0.6 81
2018-05-03 02:00:00 11 8 Norte 15 Norte 0 1009.6 0.9 86
2018-05-03 01:00:00 11 8 Norte 15 Norte 0 1009.4 1.8 90
2018-05-03 00:00:00 10.8 9 Norte 24 Norte 0 1009.2 2.3 93
2018-05-02 23:00:00 10.6 12 Norte 24 Norte 0.1 1008.7 2.9 98
2018-05-02 22:00:00 11.2 10 Norte 26 Norte 0.2 1007.6 2.2 98
2018-05-02 21:00:00 11.5 19 Norte 32 Norte 1.1 1006.9 2.1 97
2018-05-02 20:00:00 13.5 8 Noroeste 21 Noroeste 1.6 1005.8 1.4 94
2018-05-02 19:00:00 14.4 11 Oeste 26 Oeste 0 1005.4 1.1 88
2018-05-02 18:00:00 14.4 11 Oeste 24 Sudoeste 0.5 1004.8 1 88
2018-05-02 17:00:00 14.9 15 Sudoeste 37 Sudoeste 0 1004.4 0.7 82
2018-05-02 16:00:00 15.8 16 Sudoeste 39 Sudoeste 0 1004.3 0.9 72
2018-05-02 15:00:00 15.8 28 Sudoeste 37 Sudoeste 0 1003.8 1.1 72
2018-05-02 14:00:00 14.7 17 Sur 32 Sur 0 1003.7 1.9 74
2018-05-02 13:00:00 13.4 19 Sur 45 Sur 0 1003.4 2.1 77
2018-05-02 12:00:00 12.4 27 Sur 46 Sur 0 1002.7 1.9 80
2018-05-02 11:00:00 12 31 Sur 45 Sudoeste 0 1001.8 1.4 80
2018-05-02 10:00:00 11.4 27 Sur 41 Sudoeste 0 1001.3 1.3 83
2018-05-02 09:00:00 10.8 23 Sur 35 Sur 0.1 1000.8 1 85
2018-05-02 08:00:00 10.6 19 Sur 39 Sur 0.1 1000.4 0.5 84
2018-05-02 07:00:00 10.8 23 Sur 46 Sudoeste 0 1000 -0.1 84
2018-05-02 06:00:00 10.9 26 Sur 46 Sudoeste 0 999.8 -0.6 83
2018-05-02 05:00:00 10.7 19 Sur 52 Sur 0 999.9 -1.1 83
2018-05-02 04:00:00 10.6 26 Sudoeste 46 Sudoeste 0 1000.1 -1.5 84
2018-05-02 03:00:00 10.5 20 Sur 33 Sur 0 1000.4 -1.5 84
2018-05-02 02:00:00 10 13 Sudeste 26 Sudoeste 0.1 1001 -1.2 86
2018-05-02 01:00:00 10.1 10 Sur 28 Sudoeste 0.5 1001.6 -0.9 84
2018-05-02 00:00:00 10.2 10 Sur 26 Sudoeste 0.6 1001.9 -0.6 81
2018-05-01 23:00:00 10.3 14 Sur 28 Sudoeste 0.2 1002.2 -0.4 78
2018-05-01 22:00:00 11.5 17 Sur 33 Sudoeste 0 1002.5 -0.1 64
2018-05-01 21:00:00 12.1 21 Sudoeste 35 Sudoeste 0 1002.5 -0.4 58
2018-05-01 20:00:00 13.1 22 Sudoeste 32 Sudoeste 0 1002.6 -0.7 53
2018-05-01 19:00:00 15.2 24 Sudoeste 35 Sudoeste 0 1002.6 -1.5 46
2018-05-01 18:00:00 16.2 18 Sudoeste 39 Sudoeste 0 1002.9 -1.8 41
2018-05-01 17:00:00 14.5 6 Noroeste 26 Noroeste 0 1003.3 -1.8 54
2018-05-01 16:00:00 13.9 16 Noroeste 30 Noroeste 0 1004.1 -1.3 56
2018-05-01 15:00:00 13.8 15 Noroeste 28 Norte 0 1004.7 -1.3 57
2018-05-01 14:00:00 13.3 11 Norte 18 Norte 0 1005.1 -1 56
2018-05-01 13:00:00 14.4 12 Oeste 21 Sudoeste 0 1005.4 -1 48
2018-05-01 12:00:00 12.9 5 Oeste 22 Sur 0 1006 -0.5 53
2018-05-01 11:00:00 12.3 9 Sur 21 Sudeste 0 1006.1 -0.1 66
2018-05-01 10:00:00 7.8 11 Sur 24 Sudeste 0 1006.4 0.4 83
2018-05-01 09:00:00 4.3 12 Sur 15 Sur 0 1006.5 0.4 93
2018-05-01 08:00:00 2.9 12 Sur 21 Sur 0 1006.2 -0.2 96
2018-05-01 07:00:00 3.1 11 Sur 13 Sur 0 1006 -0.8 96
2018-05-01 06:00:00 3 11 Sur 13 Sur 0 1006.1 -1.1 96
2018-05-01 05:00:00 3.4 8 Sur 13 Sur 0 1006.4 -1 96
2018-05-01 04:00:00 4 10 Sur 13 Sur 0 1006.8 -0.7 95
2018-05-01 03:00:00 4.7 8 Sur 13 Sur 0 1007.2 -0.1 93
2018-05-01 02:00:00 5.7 10 Sur 13 Sur 0 1007.4 0.2 90
2018-05-01 01:00:00 6.7 7 Sur 13 Sudeste 0 1007.5 0.8 84
2018-05-01 00:00:00 8.5 0 Calma 5 Sudeste 0 1007.3 1 74
2018-04-30 23:00:00 9.2 4 Nordeste 24 Norte 0 1007.2 1.1 70
2018-04-30 22:00:00 10.6 9 Nordeste 24 Norte 0 1006.7 0.8 66
2018-04-30 21:00:00 11.4 13 Norte 30 Norte 0 1006.3 0.8 64
2018-04-30 20:00:00 11.7 18 Norte 32 Norte 0 1006.1 0.7 61
2018-04-30 19:00:00 11.6 15 Norte 32 Norte 0 1005.9 0.6 59
2018-04-30 18:00:00 12.1 19 Norte 33 Norte 0 1005.5 0.1 61
2018-04-30 17:00:00 12.2 16 Norte 33 Norte 0 1005.4 0 59
2018-04-30 16:00:00 13.3 18 Norte 32 Norte 0 1005.3 0.1 58
2018-04-30 15:00:00 11.6 14 Nordeste 33 Norte 0 1005.4 0.9 65
2018-04-30 14:00:00 11.7 14 Norte 22 Norte 0 1005.4 1.2 65
2018-04-30 13:00:00 11.1 13 Norte 28 Nordeste 0 1005.2 1.6 66
2018-04-30 12:00:00 12.1 10 Norte 17 Norte 0 1004.5 1.4 67
2018-04-30 11:00:00 11.1 3 Oeste 11 Sudeste 0 1004.2 1.8 77
2018-04-30 10:00:00 8.2 6 Sur 11 Sur 0 1003.6 1.9 91
2018-04-30 09:00:00 7.1 7 Sur 13 Sudeste 0 1003.1 1.6 93
2018-04-30 08:00:00 6.5 7 Sur 24 Sur 0 1002.4 1.1 93
2018-04-30 07:00:00 6.6 8 Sur 13 Sur 0 1001.7 0.8 95
2018-04-30 06:00:00 6.9 8 Sur 15 Sur 0.7 1001.5 0.5 92
2018-04-30 05:00:00 7.3 8 Sur 18 Sudoeste 0.3 1001.3 0.2 87
2018-04-30 04:00:00 7.5 8 Sur 18 Sudoeste 0 1000.9 0.2 84
2018-04-30 03:00:00 7.5 10 Sur 21 Sudoeste 0 1001 0.6 85
2018-04-30 02:00:00 7.5 9 Sur 21 Sudoeste 0 1001.1 1 84
2018-04-30 01:00:00 7.7 19 Sudoeste 30 Sudoeste 0 1000.7 1.2 82
2018-04-30 00:00:00 7.5 22 Sudoeste 30 Sudoeste 0 1000.4 1.6 84
2018-04-29 23:00:00 7.4 13 Sur 28 Sudoeste 0 1000.1 2 84
2018-04-29 22:00:00 8.1 23 Sudoeste 37 Sudoeste 0.2 999.5 1.6 82
2018-04-29 21:00:00 9.6 17 Sudoeste 24 Sudoeste 0 998.8 1.2 81
2018-04-29 20:00:00 10.8 10 Oeste 30 Sudoeste 0 998.1 0.5 72
2018-04-29 19:00:00 10.7 16 Sudoeste 30 Sudoeste 0 997.9 0.9 79
2018-04-29 18:00:00 8.7 11 Sur 28 Noroeste 8.1 997.6 1 87
2018-04-29 17:00:00 8.9 20 Oeste 45 Noroeste 1.5 997.6 1.5 82
2018-04-29 16:00:00 11.6 21 Oeste 42 Oeste 0 997 1 68
2018-04-29 15:00:00 11.2 24 Oeste 50 Oeste 0 996.6 0.7 71
2018-04-29 14:00:00 12.2 19 Oeste 35 Sudoeste 0 996.1 0.7 68
2018-04-29 13:00:00 12 13 Oeste 28 Oeste 0 996 1 66
2018-04-29 12:00:00 10.2 17 Oeste 37 Oeste 0.1 995.9 1 81
2018-04-29 11:00:00 11.3 17 Sudoeste 28 Oeste 0 995.4 1 73
2018-04-29 10:00:00 10.2 14 Sur 21 Sudoeste 0 995 0.7 80
2018-04-29 09:00:00 8.6 17 Sudoeste 22 Sudoeste 0 994.9 0.4 86
2018-04-29 08:00:00 8 10 Sur 18 Sur 0 994.4 -0.2 92
2018-04-29 07:00:00 8.2 7 Sur 30 Sur 0 994.3 -0.5 93
2018-04-29 06:00:00 8.3 9 Sur 15 Sur 0 994.5 -1.1 92
2018-04-29 05:00:00 8.3 8 Sur 13 Sur 0 994.6 -1.6 92
2018-04-29 04:00:00 8 13 Sur 21 Sudoeste 0 994.8 -1.9 95
2018-04-29 03:00:00 8 9 Sur 11 Sur 0 995.6 -1.5 96
2018-04-29 02:00:00 8.1 6 Sur 11 Sur 0 996.2 -1.2 95
2018-04-29 01:00:00 8.2 6 Sur 15 Sudeste 0 996.7 -0.6 94
2018-04-29 00:00:00 9 5 Sur 15 Sur 0 997.1 0 93
2018-04-28 23:00:00 9.6 7 Sur 17 Oeste 0.1 997.4 0.3 90
2018-04-28 22:00:00 9.8 6 Oeste 22 Noroeste 0.4 997.3 -0.1 87
2018-04-28 21:00:00 11.7 10 Norte 22 Noroeste 0 997.1 -0.2 65
2018-04-28 20:00:00 12 13 Norte 28 Norte 0 997.1 -0.5 65
2018-04-28 19:00:00 12.3 14 Norte 35 Norte 0 997.4 -0.6 63
2018-04-28 18:00:00 13.7 17 Norte 32 Norte 0 997.3 -1 56
2018-04-28 17:00:00 13.6 16 Norte 32 Nordeste 0 997.6 -1.2 57
2018-04-28 16:00:00 13.8 17 Norte 32 Norte 0 998 -1.3 58
2018-04-28 15:00:00 12.6 14 Norte 28 Norte 0 998.3 -1.5 62
2018-04-28 14:00:00 13.3 14 Norte 26 Norte 0 998.8 -1.4 57
2018-04-28 13:00:00 13.9 13 Norte 22 Norte 0 999.3 -1.2 54
2018-04-28 12:00:00 13.7 6 Este 15 Este 0 999.8 -0.7 51
2018-04-28 11:00:00 12.5 5 Sudeste 15 Este 0 1000.2 -0.4 61
2018-04-28 10:00:00 9.3 9 Sur 13 Sur 0 1000.5 -0.2 80
2018-04-28 09:00:00 6.7 9 Sur 13 Sur 0 1000.5 -0.6 90
2018-04-28 08:00:00 5 8 Sur 24 Sudeste 0 1000.6 -0.9 94
2018-04-28 07:00:00 5.3 7 Sudeste 15 Sur 0 1000.7 -1.4 93
2018-04-28 06:00:00 6 10 Sur 13 Sur 0 1001.1 -1.7 92
2018-04-28 05:00:00 7.2 7 Sur 11 Sur 0 1001.5 -1.8 89
2018-04-28 04:00:00 7.6 6 Sur 9 Sur 0 1002.1 -1.6 86
2018-04-28 03:00:00 8.6 -- -- -- -- 0 1002.8 -1.3 84
2018-04-28 02:00:00 8.9 8 Sur 15 Sur 0 1003.3 -1.3 81
2018-04-28 01:00:00 10.1 4 Sur 9 Sur 0 1003.7 -0.8 75
2018-04-28 00:00:00 10.6 5 Oeste 11 Noroeste 0 1004.1 -0.5 73
2018-04-27 23:00:00 10.8 5 Oeste 9 Noroeste 0 1004.6 -0.1 69
2018-04-27 22:00:00 10.9 5 Noroeste 24 Noroeste 0 1004.5 -0.5 68
2018-04-27 21:00:00 11.8 13 Noroeste 24 Norte 0 1004.6 -0.4 63
2018-04-27 20:00:00 12.7 15 Noroeste 30 Norte 0 1004.7 -0.5 59
2018-04-27 19:00:00 12.7 21 Noroeste 33 Noroeste 0 1005 -0.6 61
2018-04-27 18:00:00 13.9 18 Noroeste 30 Noroeste 0 1005 -0.6 55
2018-04-27 17:00:00 14.8 17 Noroeste 33 Norte 0 1005.2 -0.7 48
2018-04-27 16:00:00 14.4 19 Norte 33 Noroeste 0 1005.6 -0.5 51
2018-04-27 15:00:00 13.8 21 Noroeste 33 Oeste 0 1005.6 -0.5 51
2018-04-27 14:00:00 13.3 17 Noroeste 35 Noroeste 0 1005.9 0 54
2018-04-27 13:00:00 13.4 22 Noroeste 35 Noroeste 0 1006.1 0.5 51
2018-04-27 12:00:00 12.5 18 Noroeste 39 Noroeste 0 1006.1 1 57
2018-04-27 11:00:00 12.2 15 Oeste 33 Noroeste 0 1005.9 1.4 63
2018-04-27 10:00:00 11.2 13 Noroeste 24 Noroeste 0 1005.6 1.6 73
2018-04-27 09:00:00 10.2 12 Noroeste 22 Oeste 0 1005.1 1.1 84
2018-04-27 08:00:00 10.7 12 Noroeste 32 Noroeste 0 1004.5 0.6 78
2018-04-27 07:00:00 10.9 13 Noroeste 30 Noroeste 0 1004 0.1 76
2018-04-27 06:00:00 10.8 14 Noroeste 30 Oeste 0 1004 -0.2 85
2018-04-27 05:00:00 11.5 17 Oeste 35 Oeste 0 1003.9 -0.6 87
2018-04-27 04:00:00 11.7 17 Sudoeste 39 Oeste 0 1003.9 -0.8 84
2018-04-27 03:00:00 11.9 16 Oeste 30 Sudoeste 0 1004.2 -0.9 69
2018-04-27 02:00:00 8.8 4 Sur 17 Sur 0 1004.5 -0.1 90
2018-04-27 01:00:00 9.6 9 Sur 15 Sur 0 1004.7 0.1 90
2018-04-27 00:00:00 9.9 5 Noroeste 15 Sur 0 1005.1 0.5 89
2018-04-26 23:00:00 10.9 9 Sur 11 Sur 0 1004.6 -0.6 88
2018-04-26 22:00:00 11.7 13 Oeste 22 Oeste 0 1004.6 -0.8 86
2018-04-26 21:00:00 13.9 10 Noroeste 22 Noroeste 0 1004.6 -1.2 74
2018-04-26 20:00:00 15.6 14 Noroeste 26 Noroeste 0 1005.2 -0.9 61
2018-04-26 19:00:00 16 15 Norte 30 Norte 0 1005.4 -1.6 63
2018-04-26 18:00:00 15.4 20 Norte 33 Norte 0 1005.8 -2 68
2018-04-26 17:00:00 15.5 19 Norte 37 Norte 0 1006.1 -2.2 68
2018-04-26 16:00:00 15.2 21 Norte 35 Norte 0 1007 -2.6 67
2018-04-26 15:00:00 15.1 21 Norte 32 Norte 0 1007.8 -2.5 68
2018-04-26 14:00:00 15.5 16 Norte 30 Norte 0 1008.3 -2.7 64
2018-04-26 13:00:00 15.7 14 Nordeste 28 Noroeste 0 1009.6 -1.9 59
2018-04-26 12:00:00 15.1 14 Nordeste 30 Nordeste 0 1010.3 -1.5 61
2018-04-26 11:00:00 13.1 15 Nordeste 30 Nordeste 0 1011 -0.5 71
2018-04-26 10:00:00 11.5 9 Norte 17 Norte 0 1011.5 -0.2 81
2018-04-26 09:00:00 9.2 3 Norte 8 Noroeste 0 1011.8 -0.1 91
2018-04-26 08:00:00 6.6 3 Noroeste 8 Norte 0 1011.5 -0.6 92
2018-04-26 07:00:00 8.1 5 Norte 8 Norte 0 1011.7 -0.9 93
2018-04-26 06:00:00 8.7 5 Norte 13 Norte 0 1011.9 -1.2 91
2018-04-26 05:00:00 8.7 7 Norte 11 Norte 0 1012.1 -1.5 92
2018-04-26 04:00:00 9.5 2 Nordeste 9 Norte 0 1012.6 -1 89
2018-04-26 03:00:00 10 5 Nordeste 13 Nordeste 0 1013.1 -0.9 87
2018-04-26 02:00:00 9.7 6 Nordeste 13 Nordeste 0 1013.6 -0.5 88
2018-04-26 01:00:00 10.2 6 Nordeste 13 Nordeste 0 1013.6 0 85
2018-04-26 00:00:00 10.9 8 Nordeste 22 Norte 0 1014 1 82
2018-04-25 23:00:00 11.5 14 Norte 30 Norte 0 1014.1 1.5 80
2018-04-25 22:00:00 11.9 19 Norte 37 Norte 0 1013.6 0.9 77
2018-04-25 21:00:00 12.5 17 Norte 37 Norte 0 1013 0.4 78
2018-04-25 20:00:00 13.5 21 Norte 39 Norte 0 1012.6 -0.3 74
2018-04-25 19:00:00 14.1 23 Norte 42 Norte 0 1012.7 -0.6 69
2018-04-25 18:00:00 14.3 25 Norte 42 Norte 0 1012.6 -0.6 67
2018-04-25 17:00:00 14.3 23 Norte 41 Norte 0 1012.9 -0.5 67
2018-04-25 16:00:00 14.4 23 Norte 39 Norte 0 1013.3 0.1 68
2018-04-25 15:00:00 14.1 25 Norte 41 Norte 0 1013.2 0.1 72
2018-04-25 14:00:00 13.3 22 Norte 37 Norte 0 1013.4 1.2 75
2018-04-25 13:00:00 13.1 20 Norte 33 Norte 0 1013.2 1.5 82
2018-04-25 12:00:00 12.3 17 Norte 33 Norte 0 1013.1 2.1 92
2018-04-25 11:00:00 11.7 18 Norte 39 Norte 0.3 1012.2 1.7 97
2018-04-25 10:00:00 11.8 3 Noroeste 8 Noroeste 0.3 1011.7 1.7 95
2018-04-25 09:00:00 11.7 3 Nordeste 8 Nordeste 0 1011 1.3 90
2018-04-25 08:00:00 11.6 5 Sur 8 Sur 0 1010.5 1.1 93
2018-04-25 07:00:00 11.5 0 Calma 5 Norte 0 1010 0.7 93
2018-04-25 06:00:00 11.4 0 Calma 5 Nordeste 0 1009.7 0.1 93
2018-04-25 05:00:00 11.2 5 Este 8 Este 0 1009.4 0.1 94
2018-04-25 04:00:00 11.6 5 Noroeste 17 Noroeste 0 1009.3 -0.3 92
2018-04-25 03:00:00 12 10 Norte 18 Norte 0 1009.6 0 93
2018-04-25 02:00:00 11.8 10 Noroeste 15 Noroeste 0 1009.3 0 93
2018-04-25 01:00:00 12.2 10 Norte 21 Norte 0 1009.6 1.1 93
2018-04-25 00:00:00 12.6 14 Norte 24 Norte 0 1009.6 1.8 93
2018-04-24 23:00:00 12.7 10 Norte 24 Norte 0 1009.3 1.6 92
2018-04-24 22:00:00 12.8 11 Norte 30 Norte 0 1008.5 0.9 91
2018-04-24 21:00:00 13.4 18 Norte 32 Noroeste 0 1007.8 0.4 88
2018-04-24 20:00:00 13.6 21 Norte 33 Norte 0 1007.7 0.1 88
2018-04-24 19:00:00 14 18 Norte 30 Norte 0 1007.6 -0.3 87
2018-04-24 18:00:00 15.2 15 Norte 39 Norte 0 1007.4 -0.3 82
2018-04-24 17:00:00 14.4 24 Norte 45 Norte 0 1007.6 0.3 85
2018-04-24 16:00:00 14.1 24 Norte 42 Norte 0 1007.9 0.5 86
2018-04-24 15:00:00 15.6 22 Norte 35 Norte 0 1007.7 0.4 78
2018-04-24 14:00:00 16.6 17 Norte 30 Norte 0 1007.3 -0.2 74
2018-04-24 13:00:00 16.8 14 Norte 26 Norte 0 1007.4 0 74
2018-04-24 12:00:00 15.8 10 Norte 17 Norte 0 1007.3 0.2 75
2018-04-24 11:00:00 14.4 9 Norte 13 Norte 0 1007.5 0.9 80
2018-04-24 10:00:00 12.5 0 Calma 8 Sur 0 1007.4 1.1 91
2018-04-24 09:00:00 9 6 Sur 11 Sur 0 1007.1 0.7 97
2018-04-24 08:00:00 7.3 5 Sudoeste 9 Sur 0 1006.6 0.1 96
2018-04-24 07:00:00 8.3 0 Calma 9 Sur 0 1006.3 -0.7 97
2018-04-24 06:00:00 8.3 4 Oeste 8 Sudoeste 0 1006.4 -0.9 96
2018-04-24 05:00:00 9.4 0 Calma 5 Oeste 0 1006.5 -0.9 95
2018-04-24 04:00:00 10.5 0 Calma 5 Este 0 1007 -0.5 94
2018-04-24 03:00:00 10.9 0 Calma 9 Noroeste 0 1007.3 -0.4 94
2018-04-24 02:00:00 10.7 7 Noroeste 9 Noroeste 0 1007.4 -0.4 94
2018-04-24 01:00:00 11.5 6 Noroeste 9 Norte 0 1007.5 0.4 93
2018-04-24 00:00:00 11.9 5 Noroeste 9 Noroeste 0 1007.7 1.2 92